<?xml version="1.0" encoding="UTF-8" standalone="no" ?>
<gpx xmlns="http://www.topografix.com/GPX/1/1" xmlns:xsi="http://www.w3.org/2001/XMLSchema-instance" xsi:schemaLocation="http://www.topografix.com/GPX/1/1 http://www.topografix.com/GPX/1/1/gpx.xsd" version="1.1" creator="VisuGPX - https://www.visugpx.com">
  <metadata>
    <name>Davrinche20104</name>
    <desc><![CDATA[la partie 4 des itinéraires de repérage]]></desc>
  </metadata>
  <trk>
    <name><![CDATA[--Chapdes-Beaufort-- OR-5373888:ser-jb03-b]]></name>
    <trkseg>
      <trkpt lat="45.89273" lon="2.86183">
        <ele>779</ele>
        <time>2015-10-17T12:39:12Z</time>
      </trkpt>
      <trkpt lat="45.89285" lon="2.86185">
        <ele>778</ele>
        <time>2015-10-17T12:41:12Z</time>
      </trkpt>
      <trkpt lat="45.89293" lon="2.86187">
        <ele>778</ele>
        <time>2015-10-17T12:43:12Z</time>
      </trkpt>
      <trkpt lat="45.89305" lon="2.86198">
        <ele>777</ele>
        <time>2015-10-17T12:45:12Z</time>
      </trkpt>
      <trkpt lat="45.89317" lon="2.86209">
        <ele>777</ele>
        <time>2015-10-17T12:47:12Z</time>
      </trkpt>
      <trkpt lat="45.89343" lon="2.86223">
        <ele>775</ele>
        <time>2015-10-17T12:49:12Z</time>
      </trkpt>
      <trkpt lat="45.89361" lon="2.86225">
        <ele>773</ele>
        <time>2015-10-17T12:51:12Z</time>
      </trkpt>
      <trkpt lat="45.89378" lon="2.86236">
        <ele>771</ele>
        <time>2015-10-17T12:53:12Z</time>
      </trkpt>
      <trkpt lat="45.89389" lon="2.86244">
        <ele>770</ele>
        <time>2015-10-17T12:55:12Z</time>
      </trkpt>
      <trkpt lat="45.89408" lon="2.86265">
        <ele>769</ele>
        <time>2015-10-17T12:57:12Z</time>
      </trkpt>
      <trkpt lat="45.89425" lon="2.86293">
        <ele>769</ele>
        <time>2015-10-17T12:59:12Z</time>
      </trkpt>
      <trkpt lat="45.89435" lon="2.8631">
        <ele>769</ele>
        <time>2015-10-17T13:01:12Z</time>
      </trkpt>
      <trkpt lat="45.89448" lon="2.86319">
        <ele>768</ele>
        <time>2015-10-17T13:03:12Z</time>
      </trkpt>
      <trkpt lat="45.89464" lon="2.86322">
        <ele>767</ele>
        <time>2015-10-17T13:05:12Z</time>
      </trkpt>
      <trkpt lat="45.89486" lon="2.86321">
        <ele>764</ele>
        <time>2015-10-17T13:07:12Z</time>
      </trkpt>
      <trkpt lat="45.89503" lon="2.86325">
        <ele>763</ele>
        <time>2015-10-17T13:09:12Z</time>
      </trkpt>
      <trkpt lat="45.8952" lon="2.86326">
        <ele>762</ele>
        <time>2015-10-17T13:11:12Z</time>
      </trkpt>
      <trkpt lat="45.89535" lon="2.86333">
        <ele>762</ele>
        <time>2015-10-17T13:13:12Z</time>
      </trkpt>
      <trkpt lat="45.89555" lon="2.86346">
        <ele>762</ele>
        <time>2015-10-17T13:15:12Z</time>
      </trkpt>
      <trkpt lat="45.89593" lon="2.86365">
        <ele>761</ele>
        <time>2015-10-17T13:17:12Z</time>
      </trkpt>
      <trkpt lat="45.89614" lon="2.86375">
        <ele>761</ele>
        <time>2015-10-17T13:19:12Z</time>
      </trkpt>
      <trkpt lat="45.89662" lon="2.86396">
        <ele>760</ele>
        <time>2015-10-17T13:21:12Z</time>
      </trkpt>
      <trkpt lat="45.89688" lon="2.86407">
        <ele>760</ele>
        <time>2015-10-17T13:23:12Z</time>
      </trkpt>
      <trkpt lat="45.89716" lon="2.86421">
        <ele>761</ele>
        <time>2015-10-17T13:25:12Z</time>
      </trkpt>
      <trkpt lat="45.89747" lon="2.86436">
        <ele>761</ele>
        <time>2015-10-17T13:27:12Z</time>
      </trkpt>
      <trkpt lat="45.89768" lon="2.86445">
        <ele>760</ele>
        <time>2015-10-17T13:29:12Z</time>
      </trkpt>
      <trkpt lat="45.89785" lon="2.86452">
        <ele>759</ele>
        <time>2015-10-17T13:31:12Z</time>
      </trkpt>
      <trkpt lat="45.89783" lon="2.86465">
        <ele>760</ele>
        <time>2015-10-17T13:33:12Z</time>
      </trkpt>
      <trkpt lat="45.89776" lon="2.86478">
        <ele>761</ele>
        <time>2015-10-17T13:35:12Z</time>
      </trkpt>
      <trkpt lat="45.89782" lon="2.86493">
        <ele>761</ele>
        <time>2015-10-17T13:37:12Z</time>
      </trkpt>
      <trkpt lat="45.89783" lon="2.86514">
        <ele>761</ele>
        <time>2015-10-17T13:39:12Z</time>
      </trkpt>
      <trkpt lat="45.89783" lon="2.86528">
        <ele>761</ele>
        <time>2015-10-17T13:41:12Z</time>
      </trkpt>
      <trkpt lat="45.89782" lon="2.86557">
        <ele>760</ele>
        <time>2015-10-17T13:43:12Z</time>
      </trkpt>
      <trkpt lat="45.89779" lon="2.86585">
        <ele>760</ele>
        <time>2015-10-17T13:45:12Z</time>
      </trkpt>
      <trkpt lat="45.89768" lon="2.8662">
        <ele>760</ele>
        <time>2015-10-17T13:47:12Z</time>
      </trkpt>
      <trkpt lat="45.89762" lon="2.86643">
        <ele>759</ele>
        <time>2015-10-17T13:49:12Z</time>
      </trkpt>
      <trkpt lat="45.89754" lon="2.86666">
        <ele>759</ele>
        <time>2015-10-17T13:51:12Z</time>
      </trkpt>
      <trkpt lat="45.89744" lon="2.86694">
        <ele>760</ele>
        <time>2015-10-17T13:53:12Z</time>
      </trkpt>
      <trkpt lat="45.89733" lon="2.86714">
        <ele>761</ele>
        <time>2015-10-17T13:55:12Z</time>
      </trkpt>
      <trkpt lat="45.89721" lon="2.86746">
        <ele>764</ele>
        <time>2015-10-17T13:57:12Z</time>
      </trkpt>
      <trkpt lat="45.89712" lon="2.86768">
        <ele>765</ele>
        <time>2015-10-17T13:59:12Z</time>
      </trkpt>
      <trkpt lat="45.89695" lon="2.86768">
        <ele>768</ele>
        <time>2015-10-17T14:01:12Z</time>
      </trkpt>
      <trkpt lat="45.89681" lon="2.86785">
        <ele>770</ele>
        <time>2015-10-17T14:03:12Z</time>
      </trkpt>
      <trkpt lat="45.8967" lon="2.86796">
        <ele>772</ele>
        <time>2015-10-17T14:05:12Z</time>
      </trkpt>
      <trkpt lat="45.89652" lon="2.86813">
        <ele>772</ele>
        <time>2015-10-17T14:07:12Z</time>
      </trkpt>
      <trkpt lat="45.89633" lon="2.86828">
        <ele>773</ele>
        <time>2015-10-17T14:09:12Z</time>
      </trkpt>
      <trkpt lat="45.8964" lon="2.86846">
        <ele>771</ele>
        <time>2015-10-17T14:11:12Z</time>
      </trkpt>
      <trkpt lat="45.89637" lon="2.86903">
        <ele>767</ele>
        <time>2015-10-17T14:13:12Z</time>
      </trkpt>
      <trkpt lat="45.89637" lon="2.86925">
        <ele>766</ele>
        <time>2015-10-17T14:15:12Z</time>
      </trkpt>
      <trkpt lat="45.89636" lon="2.86963">
        <ele>765</ele>
        <time>2015-10-17T14:17:12Z</time>
      </trkpt>
      <trkpt lat="45.8963" lon="2.86997">
        <ele>764</ele>
        <time>2015-10-17T14:19:12Z</time>
      </trkpt>
      <trkpt lat="45.89612" lon="2.87023">
        <ele>764</ele>
        <time>2015-10-17T14:21:12Z</time>
      </trkpt>
      <trkpt lat="45.89595" lon="2.87053">
        <ele>763</ele>
        <time>2015-10-17T14:23:12Z</time>
      </trkpt>
      <trkpt lat="45.89582" lon="2.87104">
        <ele>760</ele>
        <time>2015-10-17T14:25:12Z</time>
      </trkpt>
      <trkpt lat="45.89586" lon="2.87154">
        <ele>758</ele>
        <time>2015-10-17T14:27:12Z</time>
      </trkpt>
      <trkpt lat="45.89597" lon="2.87191">
        <ele>760</ele>
        <time>2015-10-17T14:29:12Z</time>
      </trkpt>
      <trkpt lat="45.89591" lon="2.87227">
        <ele>762</ele>
        <time>2015-10-17T14:31:12Z</time>
      </trkpt>
      <trkpt lat="45.89579" lon="2.87279">
        <ele>765</ele>
        <time>2015-10-17T14:33:12Z</time>
      </trkpt>
      <trkpt lat="45.89582" lon="2.87327">
        <ele>768</ele>
        <time>2015-10-17T14:35:12Z</time>
      </trkpt>
      <trkpt lat="45.89591" lon="2.87348">
        <ele>770</ele>
        <time>2015-10-17T14:37:12Z</time>
      </trkpt>
      <trkpt lat="45.89608" lon="2.87365">
        <ele>771</ele>
        <time>2015-10-17T14:39:12Z</time>
      </trkpt>
      <trkpt lat="45.89627" lon="2.87379">
        <ele>772</ele>
        <time>2015-10-17T14:41:12Z</time>
      </trkpt>
      <trkpt lat="45.89651" lon="2.874">
        <ele>774</ele>
        <time>2015-10-17T14:43:12Z</time>
      </trkpt>
      <trkpt lat="45.89676" lon="2.87417">
        <ele>776</ele>
        <time>2015-10-17T14:45:12Z</time>
      </trkpt>
      <trkpt lat="45.89697" lon="2.87435">
        <ele>777</ele>
        <time>2015-10-17T14:47:12Z</time>
      </trkpt>
      <trkpt lat="45.89715" lon="2.87457">
        <ele>777</ele>
        <time>2015-10-17T14:49:12Z</time>
      </trkpt>
      <trkpt lat="45.89746" lon="2.8751">
        <ele>780</ele>
        <time>2015-10-17T14:51:12Z</time>
      </trkpt>
      <trkpt lat="45.89768" lon="2.87536">
        <ele>781</ele>
        <time>2015-10-17T14:53:12Z</time>
      </trkpt>
      <trkpt lat="45.8979" lon="2.87577">
        <ele>784</ele>
        <time>2015-10-17T14:55:12Z</time>
      </trkpt>
      <trkpt lat="45.89817" lon="2.87638">
        <ele>787</ele>
        <time>2015-10-17T14:57:12Z</time>
      </trkpt>
      <trkpt lat="45.89762" lon="2.87706">
        <ele>795</ele>
        <time>2015-10-17T14:59:12Z</time>
      </trkpt>
      <trkpt lat="45.89748" lon="2.8772">
        <ele>797</ele>
        <time>2015-10-17T15:01:12Z</time>
      </trkpt>
      <trkpt lat="45.897" lon="2.8779">
        <ele>803</ele>
        <time>2015-10-17T15:03:12Z</time>
      </trkpt>
      <trkpt lat="45.89679" lon="2.87821">
        <ele>805</ele>
        <time>2015-10-17T15:05:12Z</time>
      </trkpt>
      <trkpt lat="45.89663" lon="2.8785">
        <ele>807</ele>
        <time>2015-10-17T15:07:12Z</time>
      </trkpt>
      <trkpt lat="45.89647" lon="2.87873">
        <ele>808</ele>
        <time>2015-10-17T15:09:12Z</time>
      </trkpt>
      <trkpt lat="45.89616" lon="2.87923">
        <ele>812</ele>
        <time>2015-10-17T15:11:12Z</time>
      </trkpt>
      <trkpt lat="45.8961" lon="2.87951">
        <ele>815</ele>
        <time>2015-10-17T15:13:12Z</time>
      </trkpt>
      <trkpt lat="45.89605" lon="2.88001">
        <ele>820</ele>
        <time>2015-10-17T15:15:12Z</time>
      </trkpt>
      <trkpt lat="45.89602" lon="2.88044">
        <ele>824</ele>
        <time>2015-10-17T15:17:12Z</time>
      </trkpt>
      <trkpt lat="45.89603" lon="2.88081">
        <ele>826</ele>
        <time>2015-10-17T15:19:12Z</time>
      </trkpt>
      <trkpt lat="45.89596" lon="2.88099">
        <ele>829</ele>
        <time>2015-10-17T15:21:12Z</time>
      </trkpt>
      <trkpt lat="45.89585" lon="2.88095">
        <ele>830</ele>
        <time>2015-10-17T15:23:12Z</time>
      </trkpt>
      <trkpt lat="45.89572" lon="2.88095">
        <ele>829</ele>
        <time>2015-10-17T15:25:12Z</time>
      </trkpt>
      <trkpt lat="45.89568" lon="2.88114">
        <ele>830</ele>
        <time>2015-10-17T15:27:12Z</time>
      </trkpt>
      <trkpt lat="45.89565" lon="2.88139">
        <ele>831</ele>
        <time>2015-10-17T15:29:12Z</time>
      </trkpt>
      <trkpt lat="45.89574" lon="2.88165">
        <ele>833</ele>
        <time>2015-10-17T15:31:12Z</time>
      </trkpt>
      <trkpt lat="45.89588" lon="2.88198">
        <ele>837</ele>
        <time>2015-10-17T15:33:12Z</time>
      </trkpt>
      <trkpt lat="45.89595" lon="2.88218">
        <ele>839</ele>
        <time>2015-10-17T15:35:12Z</time>
      </trkpt>
      <trkpt lat="45.89599" lon="2.88244">
        <ele>841</ele>
        <time>2015-10-17T15:37:12Z</time>
      </trkpt>
      <trkpt lat="45.89596" lon="2.88273">
        <ele>842</ele>
        <time>2015-10-17T15:39:12Z</time>
      </trkpt>
      <trkpt lat="45.89599" lon="2.88305">
        <ele>844</ele>
        <time>2015-10-17T15:41:12Z</time>
      </trkpt>
      <trkpt lat="45.89608" lon="2.88323">
        <ele>845</ele>
        <time>2015-10-17T15:43:12Z</time>
      </trkpt>
      <trkpt lat="45.89625" lon="2.88335">
        <ele>845</ele>
        <time>2015-10-17T15:45:12Z</time>
      </trkpt>
      <trkpt lat="45.89644" lon="2.88357">
        <ele>848</ele>
        <time>2015-10-17T15:47:12Z</time>
      </trkpt>
      <trkpt lat="45.89658" lon="2.88376">
        <ele>851</ele>
        <time>2015-10-17T15:49:12Z</time>
      </trkpt>
      <trkpt lat="45.8966" lon="2.88397">
        <ele>854</ele>
        <time>2015-10-17T15:51:12Z</time>
      </trkpt>
      <trkpt lat="45.89652" lon="2.88418">
        <ele>856</ele>
        <time>2015-10-17T15:53:12Z</time>
      </trkpt>
      <trkpt lat="45.89641" lon="2.88435">
        <ele>858</ele>
        <time>2015-10-17T15:55:12Z</time>
      </trkpt>
      <trkpt lat="45.8963" lon="2.88451">
        <ele>860</ele>
        <time>2015-10-17T15:57:12Z</time>
      </trkpt>
      <trkpt lat="45.89638" lon="2.88466">
        <ele>862</ele>
        <time>2015-10-17T15:59:12Z</time>
      </trkpt>
      <trkpt lat="45.8966" lon="2.88517">
        <ele>871</ele>
        <time>2015-10-17T16:01:12Z</time>
      </trkpt>
      <trkpt lat="45.89672" lon="2.88558">
        <ele>874</ele>
        <time>2015-10-17T16:03:12Z</time>
      </trkpt>
      <trkpt lat="45.8965" lon="2.88493">
        <ele>867</ele>
        <time>2015-10-17T16:05:12Z</time>
      </trkpt>
      <trkpt lat="45.89629" lon="2.88442">
        <ele>858</ele>
        <time>2015-10-17T16:07:12Z</time>
      </trkpt>
      <trkpt lat="45.89611" lon="2.88457">
        <ele>859</ele>
        <time>2015-10-17T16:09:12Z</time>
      </trkpt>
      <trkpt lat="45.89578" lon="2.88478">
        <ele>858</ele>
        <time>2015-10-17T16:11:12Z</time>
      </trkpt>
      <trkpt lat="45.8955" lon="2.88476">
        <ele>855</ele>
        <time>2015-10-17T16:13:12Z</time>
      </trkpt>
      <trkpt lat="45.89535" lon="2.88465">
        <ele>853</ele>
        <time>2015-10-17T16:15:12Z</time>
      </trkpt>
      <trkpt lat="45.8952" lon="2.8845">
        <ele>850</ele>
        <time>2015-10-17T16:17:12Z</time>
      </trkpt>
      <trkpt lat="45.89502" lon="2.8843">
        <ele>847</ele>
        <time>2015-10-17T16:19:12Z</time>
      </trkpt>
      <trkpt lat="45.89491" lon="2.88413">
        <ele>845</ele>
        <time>2015-10-17T16:21:12Z</time>
      </trkpt>
      <trkpt lat="45.89476" lon="2.88396">
        <ele>844</ele>
        <time>2015-10-17T16:23:12Z</time>
      </trkpt>
      <trkpt lat="45.89456" lon="2.88388">
        <ele>843</ele>
        <time>2015-10-17T16:25:12Z</time>
      </trkpt>
      <trkpt lat="45.89425" lon="2.88374">
        <ele>841</ele>
        <time>2015-10-17T16:27:12Z</time>
      </trkpt>
      <trkpt lat="45.89402" lon="2.8838">
        <ele>842</ele>
        <time>2015-10-17T16:29:12Z</time>
      </trkpt>
      <trkpt lat="45.8938" lon="2.88393">
        <ele>842</ele>
        <time>2015-10-17T16:31:12Z</time>
      </trkpt>
      <trkpt lat="45.89357" lon="2.88395">
        <ele>843</ele>
        <time>2015-10-17T16:33:12Z</time>
      </trkpt>
      <trkpt lat="45.89325" lon="2.88405">
        <ele>843</ele>
        <time>2015-10-17T16:35:12Z</time>
      </trkpt>
      <trkpt lat="45.89305" lon="2.88411">
        <ele>843</ele>
        <time>2015-10-17T16:37:12Z</time>
      </trkpt>
      <trkpt lat="45.89287" lon="2.88425">
        <ele>843</ele>
        <time>2015-10-17T16:39:12Z</time>
      </trkpt>
      <trkpt lat="45.89269" lon="2.88433">
        <ele>844</ele>
        <time>2015-10-17T16:41:12Z</time>
      </trkpt>
      <trkpt lat="45.89228" lon="2.88463">
        <ele>845</ele>
        <time>2015-10-17T16:43:12Z</time>
      </trkpt>
      <trkpt lat="45.89204" lon="2.88467">
        <ele>845</ele>
        <time>2015-10-17T16:45:12Z</time>
      </trkpt>
      <trkpt lat="45.89185" lon="2.88473">
        <ele>845</ele>
        <time>2015-10-17T16:47:12Z</time>
      </trkpt>
      <trkpt lat="45.89187" lon="2.88499">
        <ele>846</ele>
        <time>2015-10-17T16:49:12Z</time>
      </trkpt>
      <trkpt lat="45.89185" lon="2.88519">
        <ele>847</ele>
        <time>2015-10-17T16:51:12Z</time>
      </trkpt>
      <trkpt lat="45.89184" lon="2.88549">
        <ele>848</ele>
        <time>2015-10-17T16:53:12Z</time>
      </trkpt>
      <trkpt lat="45.8919" lon="2.88585">
        <ele>849</ele>
        <time>2015-10-17T16:55:12Z</time>
      </trkpt>
      <trkpt lat="45.89193" lon="2.88618">
        <ele>850</ele>
        <time>2015-10-17T16:57:12Z</time>
      </trkpt>
      <trkpt lat="45.89198" lon="2.88653">
        <ele>851</ele>
        <time>2015-10-17T16:59:12Z</time>
      </trkpt>
      <trkpt lat="45.89219" lon="2.88659">
        <ele>851</ele>
        <time>2015-10-17T17:01:12Z</time>
      </trkpt>
      <trkpt lat="45.89222" lon="2.88676">
        <ele>851</ele>
        <time>2015-10-17T17:03:12Z</time>
      </trkpt>
      <trkpt lat="45.89236" lon="2.88688">
        <ele>850</ele>
        <time>2015-10-17T17:05:12Z</time>
      </trkpt>
      <trkpt lat="45.89252" lon="2.88699">
        <ele>850</ele>
        <time>2015-10-17T17:07:12Z</time>
      </trkpt>
      <trkpt lat="45.89268" lon="2.88715">
        <ele>850</ele>
        <time>2015-10-17T17:09:12Z</time>
      </trkpt>
      <trkpt lat="45.89276" lon="2.88735">
        <ele>849</ele>
        <time>2015-10-17T17:11:12Z</time>
      </trkpt>
      <trkpt lat="45.89271" lon="2.88755">
        <ele>848</ele>
        <time>2015-10-17T17:13:12Z</time>
      </trkpt>
      <trkpt lat="45.89257" lon="2.88805">
        <ele>843</ele>
        <time>2015-10-17T17:15:12Z</time>
      </trkpt>
      <trkpt lat="45.89246" lon="2.88823">
        <ele>842</ele>
        <time>2015-10-17T17:17:12Z</time>
      </trkpt>
      <trkpt lat="45.89224" lon="2.88834">
        <ele>843</ele>
        <time>2015-10-17T17:19:12Z</time>
      </trkpt>
      <trkpt lat="45.89209" lon="2.88847">
        <ele>843</ele>
        <time>2015-10-17T17:21:12Z</time>
      </trkpt>
      <trkpt lat="45.89203" lon="2.8887">
        <ele>841</ele>
        <time>2015-10-17T17:23:12Z</time>
      </trkpt>
      <trkpt lat="45.89201" lon="2.88906">
        <ele>836</ele>
        <time>2015-10-17T17:25:12Z</time>
      </trkpt>
      <trkpt lat="45.89202" lon="2.88946">
        <ele>833</ele>
        <time>2015-10-17T17:27:12Z</time>
      </trkpt>
      <trkpt lat="45.89197" lon="2.88996">
        <ele>832</ele>
        <time>2015-10-17T17:29:12Z</time>
      </trkpt>
      <trkpt lat="45.89181" lon="2.89074">
        <ele>832</ele>
        <time>2015-10-17T17:31:12Z</time>
      </trkpt>
      <trkpt lat="45.89184" lon="2.89103">
        <ele>831</ele>
        <time>2015-10-17T17:33:12Z</time>
      </trkpt>
      <trkpt lat="45.89211" lon="2.89159">
        <ele>828</ele>
        <time>2015-10-17T17:35:12Z</time>
      </trkpt>
      <trkpt lat="45.89229" lon="2.89202">
        <ele>824</ele>
        <time>2015-10-17T17:37:12Z</time>
      </trkpt>
      <trkpt lat="45.8925" lon="2.89243">
        <ele>820</ele>
        <time>2015-10-17T17:39:12Z</time>
      </trkpt>
      <trkpt lat="45.89272" lon="2.89274">
        <ele>818</ele>
        <time>2015-10-17T17:41:12Z</time>
      </trkpt>
      <trkpt lat="45.89296" lon="2.89316">
        <ele>816</ele>
        <time>2015-10-17T17:43:12Z</time>
      </trkpt>
      <trkpt lat="45.89313" lon="2.89348">
        <ele>815</ele>
        <time>2015-10-17T17:45:12Z</time>
      </trkpt>
      <trkpt lat="45.89324" lon="2.89385">
        <ele>814</ele>
        <time>2015-10-17T17:47:12Z</time>
      </trkpt>
      <trkpt lat="45.89336" lon="2.89429">
        <ele>813</ele>
        <time>2015-10-17T17:49:12Z</time>
      </trkpt>
      <trkpt lat="45.89345" lon="2.89461">
        <ele>812</ele>
        <time>2015-10-17T17:51:12Z</time>
      </trkpt>
      <trkpt lat="45.8934" lon="2.89484">
        <ele>812</ele>
        <time>2015-10-17T17:53:12Z</time>
      </trkpt>
      <trkpt lat="45.89327" lon="2.89508">
        <ele>812</ele>
        <time>2015-10-17T17:55:12Z</time>
      </trkpt>
      <trkpt lat="45.89314" lon="2.89524">
        <ele>812</ele>
        <time>2015-10-17T17:57:12Z</time>
      </trkpt>
      <trkpt lat="45.89302" lon="2.89549">
        <ele>812</ele>
        <time>2015-10-17T17:59:12Z</time>
      </trkpt>
      <trkpt lat="45.89291" lon="2.89579">
        <ele>813</ele>
        <time>2015-10-17T18:01:12Z</time>
      </trkpt>
      <trkpt lat="45.89287" lon="2.89599">
        <ele>812</ele>
        <time>2015-10-17T18:03:12Z</time>
      </trkpt>
      <trkpt lat="45.89271" lon="2.89623">
        <ele>813</ele>
        <time>2015-10-17T18:05:12Z</time>
      </trkpt>
      <trkpt lat="45.89237" lon="2.89649">
        <ele>814</ele>
        <time>2015-10-17T18:07:12Z</time>
      </trkpt>
      <trkpt lat="45.89222" lon="2.89665">
        <ele>815</ele>
        <time>2015-10-17T18:09:12Z</time>
      </trkpt>
      <trkpt lat="45.8921" lon="2.8968">
        <ele>816</ele>
        <time>2015-10-17T18:11:12Z</time>
      </trkpt>
      <trkpt lat="45.89196" lon="2.8969">
        <ele>817</ele>
        <time>2015-10-17T18:13:12Z</time>
      </trkpt>
      <trkpt lat="45.89181" lon="2.89694">
        <ele>817</ele>
        <time>2015-10-17T18:15:12Z</time>
      </trkpt>
      <trkpt lat="45.89157" lon="2.89712">
        <ele>819</ele>
        <time>2015-10-17T18:17:12Z</time>
      </trkpt>
      <trkpt lat="45.89142" lon="2.89692">
        <ele>820</ele>
        <time>2015-10-17T18:19:12Z</time>
      </trkpt>
      <trkpt lat="45.89119" lon="2.8969">
        <ele>822</ele>
        <time>2015-10-17T18:21:12Z</time>
      </trkpt>
      <trkpt lat="45.89099" lon="2.89684">
        <ele>824</ele>
        <time>2015-10-17T18:23:12Z</time>
      </trkpt>
      <trkpt lat="45.89082" lon="2.89677">
        <ele>825</ele>
        <time>2015-10-17T18:25:12Z</time>
      </trkpt>
      <trkpt lat="45.89066" lon="2.89673">
        <ele>827</ele>
        <time>2015-10-17T18:27:12Z</time>
      </trkpt>
      <trkpt lat="45.89051" lon="2.89668">
        <ele>828</ele>
        <time>2015-10-17T18:29:12Z</time>
      </trkpt>
      <trkpt lat="45.89031" lon="2.89662">
        <ele>831</ele>
        <time>2015-10-17T18:31:12Z</time>
      </trkpt>
      <trkpt lat="45.89007" lon="2.89654">
        <ele>833</ele>
        <time>2015-10-17T18:33:12Z</time>
      </trkpt>
      <trkpt lat="45.88989" lon="2.89643">
        <ele>835</ele>
        <time>2015-10-17T18:35:12Z</time>
      </trkpt>
      <trkpt lat="45.88974" lon="2.89634">
        <ele>836</ele>
        <time>2015-10-17T18:37:12Z</time>
      </trkpt>
      <trkpt lat="45.8896" lon="2.89628">
        <ele>837</ele>
        <time>2015-10-17T18:39:12Z</time>
      </trkpt>
      <trkpt lat="45.88944" lon="2.89632">
        <ele>838</ele>
        <time>2015-10-17T18:41:12Z</time>
      </trkpt>
      <trkpt lat="45.88926" lon="2.89633">
        <ele>840</ele>
        <time>2015-10-17T18:43:12Z</time>
      </trkpt>
      <trkpt lat="45.88899" lon="2.8962">
        <ele>841</ele>
        <time>2015-10-17T18:45:12Z</time>
      </trkpt>
      <trkpt lat="45.88863" lon="2.89602">
        <ele>843</ele>
        <time>2015-10-17T18:47:12Z</time>
      </trkpt>
      <trkpt lat="45.88849" lon="2.89596">
        <ele>843</ele>
        <time>2015-10-17T18:49:12Z</time>
      </trkpt>
      <trkpt lat="45.88813" lon="2.89582">
        <ele>845</ele>
        <time>2015-10-17T18:51:12Z</time>
      </trkpt>
      <trkpt lat="45.88791" lon="2.89568">
        <ele>846</ele>
        <time>2015-10-17T18:53:12Z</time>
      </trkpt>
      <trkpt lat="45.88762" lon="2.89556">
        <ele>847</ele>
        <time>2015-10-17T18:55:12Z</time>
      </trkpt>
      <trkpt lat="45.88739" lon="2.89543">
        <ele>848</ele>
        <time>2015-10-17T18:57:12Z</time>
      </trkpt>
      <trkpt lat="45.88712" lon="2.89532">
        <ele>848</ele>
        <time>2015-10-17T18:59:12Z</time>
      </trkpt>
      <trkpt lat="45.88694" lon="2.8952">
        <ele>849</ele>
        <time>2015-10-17T19:01:12Z</time>
      </trkpt>
      <trkpt lat="45.88675" lon="2.89507">
        <ele>849</ele>
        <time>2015-10-17T19:03:12Z</time>
      </trkpt>
      <trkpt lat="45.88657" lon="2.8949">
        <ele>849</ele>
        <time>2015-10-17T19:05:12Z</time>
      </trkpt>
      <trkpt lat="45.88649" lon="2.89478">
        <ele>849</ele>
        <time>2015-10-17T19:07:12Z</time>
      </trkpt>
      <trkpt lat="45.88633" lon="2.89455">
        <ele>849</ele>
        <time>2015-10-17T19:09:12Z</time>
      </trkpt>
      <trkpt lat="45.88626" lon="2.89439">
        <ele>850</ele>
        <time>2015-10-17T19:11:12Z</time>
      </trkpt>
      <trkpt lat="45.88606" lon="2.89374">
        <ele>852</ele>
        <time>2015-10-17T19:13:12Z</time>
      </trkpt>
      <trkpt lat="45.88597" lon="2.89325">
        <ele>853</ele>
        <time>2015-10-17T19:15:12Z</time>
      </trkpt>
      <trkpt lat="45.88593" lon="2.89286">
        <ele>854</ele>
        <time>2015-10-17T19:17:12Z</time>
      </trkpt>
      <trkpt lat="45.88592" lon="2.89236">
        <ele>856</ele>
        <time>2015-10-17T19:19:12Z</time>
      </trkpt>
      <trkpt lat="45.88588" lon="2.89174">
        <ele>857</ele>
        <time>2015-10-17T19:21:12Z</time>
      </trkpt>
      <trkpt lat="45.88601" lon="2.89138">
        <ele>860</ele>
        <time>2015-10-17T19:23:12Z</time>
      </trkpt>
      <trkpt lat="45.88611" lon="2.89103">
        <ele>863</ele>
        <time>2015-10-17T19:25:12Z</time>
      </trkpt>
      <trkpt lat="45.88617" lon="2.89068">
        <ele>865</ele>
        <time>2015-10-17T19:27:12Z</time>
      </trkpt>
      <trkpt lat="45.88626" lon="2.89019">
        <ele>868</ele>
        <time>2015-10-17T19:29:12Z</time>
      </trkpt>
      <trkpt lat="45.88631" lon="2.88988">
        <ele>870</ele>
        <time>2015-10-17T19:31:12Z</time>
      </trkpt>
      <trkpt lat="45.88629" lon="2.88955">
        <ele>871</ele>
        <time>2015-10-17T19:33:12Z</time>
      </trkpt>
      <trkpt lat="45.88624" lon="2.88935">
        <ele>871</ele>
        <time>2015-10-17T19:35:12Z</time>
      </trkpt>
      <trkpt lat="45.88612" lon="2.88922">
        <ele>869</ele>
        <time>2015-10-17T19:37:12Z</time>
      </trkpt>
      <trkpt lat="45.88596" lon="2.88913">
        <ele>867</ele>
        <time>2015-10-17T19:39:12Z</time>
      </trkpt>
      <trkpt lat="45.88564" lon="2.88883">
        <ele>865</ele>
        <time>2015-10-17T19:41:12Z</time>
      </trkpt>
      <trkpt lat="45.88554" lon="2.8887">
        <ele>866</ele>
        <time>2015-10-17T19:43:12Z</time>
      </trkpt>
      <trkpt lat="45.88547" lon="2.88863">
        <ele>866</ele>
        <time>2015-10-17T19:45:12Z</time>
      </trkpt>
      <trkpt lat="45.88529" lon="2.8885">
        <ele>866</ele>
        <time>2015-10-17T19:47:12Z</time>
      </trkpt>
      <trkpt lat="45.88514" lon="2.88849">
        <ele>865</ele>
        <time>2015-10-17T19:49:12Z</time>
      </trkpt>
      <trkpt lat="45.88497" lon="2.88855">
        <ele>862</ele>
        <time>2015-10-17T19:51:12Z</time>
      </trkpt>
      <trkpt lat="45.88489" lon="2.88858">
        <ele>861</ele>
        <time>2015-10-17T19:53:12Z</time>
      </trkpt>
      <trkpt lat="45.88472" lon="2.88861">
        <ele>858</ele>
        <time>2015-10-17T19:55:12Z</time>
      </trkpt>
      <trkpt lat="45.88455" lon="2.88859">
        <ele>857</ele>
        <time>2015-10-17T19:57:12Z</time>
      </trkpt>
      <trkpt lat="45.88438" lon="2.88859">
        <ele>856</ele>
        <time>2015-10-17T19:59:12Z</time>
      </trkpt>
      <trkpt lat="45.88422" lon="2.88862">
        <ele>854</ele>
        <time>2015-10-17T20:01:12Z</time>
      </trkpt>
      <trkpt lat="45.88411" lon="2.88859">
        <ele>853</ele>
        <time>2015-10-17T20:03:12Z</time>
      </trkpt>
      <trkpt lat="45.88402" lon="2.88865">
        <ele>851</ele>
        <time>2015-10-17T20:05:12Z</time>
      </trkpt>
      <trkpt lat="45.88386" lon="2.88869">
        <ele>848</ele>
        <time>2015-10-17T20:07:12Z</time>
      </trkpt>
      <trkpt lat="45.88369" lon="2.88872">
        <ele>845</ele>
        <time>2015-10-17T20:09:12Z</time>
      </trkpt>
      <trkpt lat="45.88325" lon="2.88865">
        <ele>841</ele>
        <time>2015-10-17T20:11:12Z</time>
      </trkpt>
      <trkpt lat="45.88306" lon="2.88845">
        <ele>841</ele>
        <time>2015-10-17T20:13:12Z</time>
      </trkpt>
      <trkpt lat="45.88288" lon="2.88823">
        <ele>840</ele>
        <time>2015-10-17T20:15:12Z</time>
      </trkpt>
      <trkpt lat="45.88258" lon="2.88778">
        <ele>837</ele>
        <time>2015-10-17T20:17:12Z</time>
      </trkpt>
      <trkpt lat="45.88241" lon="2.88751">
        <ele>835</ele>
        <time>2015-10-17T20:19:12Z</time>
      </trkpt>
      <trkpt lat="45.88233" lon="2.88737">
        <ele>833</ele>
        <time>2015-10-17T20:21:12Z</time>
      </trkpt>
      <trkpt lat="45.8822" lon="2.88705">
        <ele>830</ele>
        <time>2015-10-17T20:23:12Z</time>
      </trkpt>
      <trkpt lat="45.88216" lon="2.88676">
        <ele>829</ele>
        <time>2015-10-17T20:25:12Z</time>
      </trkpt>
      <trkpt lat="45.88216" lon="2.88625">
        <ele>829</ele>
        <time>2015-10-17T20:27:12Z</time>
      </trkpt>
      <trkpt lat="45.88213" lon="2.8857">
        <ele>829</ele>
        <time>2015-10-17T20:29:12Z</time>
      </trkpt>
      <trkpt lat="45.8821" lon="2.88521">
        <ele>827</ele>
        <time>2015-10-17T20:31:12Z</time>
      </trkpt>
      <trkpt lat="45.88211" lon="2.88484">
        <ele>826</ele>
        <time>2015-10-17T20:33:12Z</time>
      </trkpt>
      <trkpt lat="45.88199" lon="2.88482">
        <ele>823</ele>
        <time>2015-10-17T20:35:12Z</time>
      </trkpt>
      <trkpt lat="45.88188" lon="2.88467">
        <ele>821</ele>
        <time>2015-10-17T20:37:12Z</time>
      </trkpt>
      <trkpt lat="45.8818" lon="2.88449">
        <ele>819</ele>
        <time>2015-10-17T20:39:12Z</time>
      </trkpt>
      <trkpt lat="45.88166" lon="2.88438">
        <ele>816</ele>
        <time>2015-10-17T20:41:12Z</time>
      </trkpt>
      <trkpt lat="45.88148" lon="2.88439">
        <ele>815</ele>
        <time>2015-10-17T20:43:12Z</time>
      </trkpt>
      <trkpt lat="45.88128" lon="2.8844">
        <ele>813</ele>
        <time>2015-10-17T20:45:12Z</time>
      </trkpt>
      <trkpt lat="45.88071" lon="2.88436">
        <ele>807</ele>
        <time>2015-10-17T20:47:12Z</time>
      </trkpt>
      <trkpt lat="45.88055" lon="2.88428">
        <ele>806</ele>
        <time>2015-10-17T20:49:12Z</time>
      </trkpt>
      <trkpt lat="45.88022" lon="2.88423">
        <ele>803</ele>
        <time>2015-10-17T20:51:12Z</time>
      </trkpt>
      <trkpt lat="45.88001" lon="2.88421">
        <ele>801</ele>
        <time>2015-10-17T20:53:12Z</time>
      </trkpt>
      <trkpt lat="45.87986" lon="2.88409">
        <ele>799</ele>
        <time>2015-10-17T20:55:12Z</time>
      </trkpt>
      <trkpt lat="45.87968" lon="2.88391">
        <ele>796</ele>
        <time>2015-10-17T20:57:12Z</time>
      </trkpt>
      <trkpt lat="45.87958" lon="2.8838">
        <ele>794</ele>
        <time>2015-10-17T20:59:12Z</time>
      </trkpt>
      <trkpt lat="45.87947" lon="2.88374">
        <ele>792</ele>
        <time>2015-10-17T21:01:12Z</time>
      </trkpt>
      <trkpt lat="45.87927" lon="2.88374">
        <ele>790</ele>
        <time>2015-10-17T21:03:12Z</time>
      </trkpt>
      <trkpt lat="45.87908" lon="2.88363">
        <ele>787</ele>
        <time>2015-10-17T21:05:12Z</time>
      </trkpt>
      <trkpt lat="45.87868" lon="2.88347">
        <ele>781</ele>
        <time>2015-10-17T21:07:12Z</time>
      </trkpt>
      <trkpt lat="45.87843" lon="2.88333">
        <ele>778</ele>
        <time>2015-10-17T21:09:12Z</time>
      </trkpt>
      <trkpt lat="45.87825" lon="2.88323">
        <ele>776</ele>
        <time>2015-10-17T21:11:12Z</time>
      </trkpt>
      <trkpt lat="45.87804" lon="2.88318">
        <ele>774</ele>
        <time>2015-10-17T21:13:12Z</time>
      </trkpt>
      <trkpt lat="45.8778" lon="2.88302">
        <ele>772</ele>
        <time>2015-10-17T21:15:12Z</time>
      </trkpt>
      <trkpt lat="45.87771" lon="2.88233">
        <ele>773</ele>
        <time>2015-10-17T21:17:12Z</time>
      </trkpt>
      <trkpt lat="45.87762" lon="2.88207">
        <ele>773</ele>
        <time>2015-10-17T21:19:12Z</time>
      </trkpt>
      <trkpt lat="45.87744" lon="2.88112">
        <ele>772</ele>
        <time>2015-10-17T21:21:12Z</time>
      </trkpt>
      <trkpt lat="45.8775" lon="2.88094">
        <ele>772</ele>
        <time>2015-10-17T21:23:12Z</time>
      </trkpt>
      <trkpt lat="45.87757" lon="2.88069">
        <ele>771</ele>
        <time>2015-10-17T21:25:12Z</time>
      </trkpt>
      <trkpt lat="45.87768" lon="2.88044">
        <ele>769</ele>
        <time>2015-10-17T21:27:12Z</time>
      </trkpt>
      <trkpt lat="45.87772" lon="2.88015">
        <ele>767</ele>
        <time>2015-10-17T21:29:12Z</time>
      </trkpt>
      <trkpt lat="45.8776" lon="2.88008">
        <ele>767</ele>
        <time>2015-10-17T21:31:12Z</time>
      </trkpt>
      <trkpt lat="45.87768" lon="2.87984">
        <ele>766</ele>
        <time>2015-10-17T21:33:12Z</time>
      </trkpt>
      <trkpt lat="45.8776" lon="2.87957">
        <ele>765</ele>
        <time>2015-10-17T21:35:12Z</time>
      </trkpt>
      <trkpt lat="45.87749" lon="2.87941">
        <ele>764</ele>
        <time>2015-10-17T21:37:12Z</time>
      </trkpt>
      <trkpt lat="45.8772" lon="2.8793">
        <ele>764</ele>
        <time>2015-10-17T21:39:12Z</time>
      </trkpt>
      <trkpt lat="45.87691" lon="2.87926">
        <ele>765</ele>
        <time>2015-10-17T21:41:12Z</time>
      </trkpt>
      <trkpt lat="45.87696" lon="2.87912">
        <ele>765</ele>
        <time>2015-10-17T21:43:12Z</time>
      </trkpt>
      <trkpt lat="45.87712" lon="2.87886">
        <ele>765</ele>
        <time>2015-10-17T21:45:12Z</time>
      </trkpt>
      <trkpt lat="45.87722" lon="2.87863">
        <ele>765</ele>
        <time>2015-10-17T21:47:12Z</time>
      </trkpt>
      <trkpt lat="45.87726" lon="2.8785">
        <ele>765</ele>
        <time>2015-10-17T21:49:12Z</time>
      </trkpt>
      <trkpt lat="45.87747" lon="2.87816">
        <ele>763</ele>
        <time>2015-10-17T21:51:12Z</time>
      </trkpt>
      <trkpt lat="45.87758" lon="2.87799">
        <ele>764</ele>
        <time>2015-10-17T21:53:12Z</time>
      </trkpt>
      <trkpt lat="45.87774" lon="2.87737">
        <ele>768</ele>
        <time>2015-10-17T21:55:12Z</time>
      </trkpt>
      <trkpt lat="45.87795" lon="2.8767">
        <ele>776</ele>
        <time>2015-10-17T21:57:12Z</time>
      </trkpt>
      <trkpt lat="45.87808" lon="2.87635">
        <ele>779</ele>
        <time>2015-10-17T21:59:12Z</time>
      </trkpt>
      <trkpt lat="45.87821" lon="2.87585">
        <ele>782</ele>
        <time>2015-10-17T22:01:12Z</time>
      </trkpt>
      <trkpt lat="45.87827" lon="2.87555">
        <ele>781</ele>
        <time>2015-10-17T22:03:12Z</time>
      </trkpt>
      <trkpt lat="45.87824" lon="2.87518">
        <ele>783</ele>
        <time>2015-10-17T22:05:12Z</time>
      </trkpt>
      <trkpt lat="45.87803" lon="2.87468">
        <ele>789</ele>
        <time>2015-10-17T22:07:12Z</time>
      </trkpt>
      <trkpt lat="45.87768" lon="2.87442">
        <ele>798</ele>
        <time>2015-10-17T22:09:12Z</time>
      </trkpt>
      <trkpt lat="45.87759" lon="2.87461">
        <ele>802</ele>
        <time>2015-10-17T22:11:12Z</time>
      </trkpt>
      <trkpt lat="45.87745" lon="2.87468">
        <ele>806</ele>
        <time>2015-10-17T22:13:12Z</time>
      </trkpt>
      <trkpt lat="45.87727" lon="2.87456">
        <ele>809</ele>
        <time>2015-10-17T22:15:12Z</time>
      </trkpt>
      <trkpt lat="45.87691" lon="2.87398">
        <ele>815</ele>
        <time>2015-10-17T22:17:12Z</time>
      </trkpt>
      <trkpt lat="45.8767" lon="2.87315">
        <ele>819</ele>
        <time>2015-10-17T22:19:12Z</time>
      </trkpt>
      <trkpt lat="45.87657" lon="2.87218">
        <ele>819</ele>
        <time>2015-10-17T22:21:12Z</time>
      </trkpt>
      <trkpt lat="45.87647" lon="2.87165">
        <ele>821</ele>
        <time>2015-10-17T22:23:12Z</time>
      </trkpt>
      <trkpt lat="45.87639" lon="2.87133">
        <ele>821</ele>
        <time>2015-10-17T22:25:12Z</time>
      </trkpt>
      <trkpt lat="45.87635" lon="2.87059">
        <ele>820</ele>
        <time>2015-10-17T22:27:12Z</time>
      </trkpt>
      <trkpt lat="45.87647" lon="2.87034">
        <ele>816</ele>
        <time>2015-10-17T22:29:12Z</time>
      </trkpt>
      <trkpt lat="45.8765" lon="2.8702">
        <ele>815</ele>
        <time>2015-10-17T22:31:12Z</time>
      </trkpt>
      <trkpt lat="45.87645" lon="2.86992">
        <ele>815</ele>
        <time>2015-10-17T22:33:12Z</time>
      </trkpt>
      <trkpt lat="45.8763" lon="2.86976">
        <ele>817</ele>
        <time>2015-10-17T22:35:12Z</time>
      </trkpt>
      <trkpt lat="45.87615" lon="2.86968">
        <ele>819</ele>
        <time>2015-10-17T22:37:12Z</time>
      </trkpt>
      <trkpt lat="45.87592" lon="2.86945">
        <ele>820</ele>
        <time>2015-10-17T22:39:12Z</time>
      </trkpt>
      <trkpt lat="45.87577" lon="2.86929">
        <ele>820</ele>
        <time>2015-10-17T22:41:12Z</time>
      </trkpt>
      <trkpt lat="45.87566" lon="2.86911">
        <ele>819</ele>
        <time>2015-10-17T22:43:12Z</time>
      </trkpt>
      <trkpt lat="45.87558" lon="2.86886">
        <ele>818</ele>
        <time>2015-10-17T22:45:12Z</time>
      </trkpt>
      <trkpt lat="45.87554" lon="2.86853">
        <ele>817</ele>
        <time>2015-10-17T22:47:12Z</time>
      </trkpt>
      <trkpt lat="45.87548" lon="2.86813">
        <ele>816</ele>
        <time>2015-10-17T22:49:12Z</time>
      </trkpt>
      <trkpt lat="45.87538" lon="2.86753">
        <ele>817</ele>
        <time>2015-10-17T22:51:12Z</time>
      </trkpt>
      <trkpt lat="45.87536" lon="2.86718">
        <ele>817</ele>
        <time>2015-10-17T22:53:12Z</time>
      </trkpt>
      <trkpt lat="45.87535" lon="2.86694">
        <ele>817</ele>
        <time>2015-10-17T22:55:12Z</time>
      </trkpt>
      <trkpt lat="45.87532" lon="2.86672">
        <ele>817</ele>
        <time>2015-10-17T22:57:12Z</time>
      </trkpt>
      <trkpt lat="45.87532" lon="2.86645">
        <ele>817</ele>
        <time>2015-10-17T22:59:12Z</time>
      </trkpt>
      <trkpt lat="45.87534" lon="2.86618">
        <ele>816</ele>
        <time>2015-10-17T23:01:12Z</time>
      </trkpt>
      <trkpt lat="45.87535" lon="2.86581">
        <ele>815</ele>
        <time>2015-10-17T23:03:12Z</time>
      </trkpt>
      <trkpt lat="45.87533" lon="2.86563">
        <ele>816</ele>
        <time>2015-10-17T23:05:12Z</time>
      </trkpt>
      <trkpt lat="45.87526" lon="2.86537">
        <ele>817</ele>
        <time>2015-10-17T23:07:12Z</time>
      </trkpt>
      <trkpt lat="45.87523" lon="2.8651">
        <ele>817</ele>
        <time>2015-10-17T23:09:12Z</time>
      </trkpt>
      <trkpt lat="45.87511" lon="2.86465">
        <ele>817</ele>
        <time>2015-10-17T23:11:12Z</time>
      </trkpt>
      <trkpt lat="45.87495" lon="2.86439">
        <ele>817</ele>
        <time>2015-10-17T23:13:12Z</time>
      </trkpt>
      <trkpt lat="45.87473" lon="2.86409">
        <ele>818</ele>
        <time>2015-10-17T23:15:12Z</time>
      </trkpt>
      <trkpt lat="45.87467" lon="2.86373">
        <ele>817</ele>
        <time>2015-10-17T23:17:12Z</time>
      </trkpt>
      <trkpt lat="45.87478" lon="2.8634">
        <ele>815</ele>
        <time>2015-10-17T23:19:12Z</time>
      </trkpt>
      <trkpt lat="45.87469" lon="2.86318">
        <ele>815</ele>
        <time>2015-10-17T23:21:12Z</time>
      </trkpt>
      <trkpt lat="45.8745" lon="2.86289">
        <ele>816</ele>
        <time>2015-10-17T23:23:12Z</time>
      </trkpt>
      <trkpt lat="45.87428" lon="2.86282">
        <ele>818</ele>
        <time>2015-10-17T23:25:12Z</time>
      </trkpt>
      <trkpt lat="45.87408" lon="2.86282">
        <ele>820</ele>
        <time>2015-10-17T23:27:12Z</time>
      </trkpt>
      <trkpt lat="45.87387" lon="2.86287">
        <ele>821</ele>
        <time>2015-10-17T23:29:12Z</time>
      </trkpt>
      <trkpt lat="45.87366" lon="2.86288">
        <ele>821</ele>
        <time>2015-10-17T23:31:12Z</time>
      </trkpt>
      <trkpt lat="45.87327" lon="2.86298">
        <ele>823</ele>
        <time>2015-10-17T23:33:12Z</time>
      </trkpt>
      <trkpt lat="45.87307" lon="2.86301">
        <ele>823</ele>
        <time>2015-10-17T23:35:12Z</time>
      </trkpt>
      <trkpt lat="45.87267" lon="2.86309">
        <ele>824</ele>
        <time>2015-10-17T23:37:12Z</time>
      </trkpt>
      <trkpt lat="45.87254" lon="2.86306">
        <ele>824</ele>
        <time>2015-10-17T23:39:12Z</time>
      </trkpt>
      <trkpt lat="45.8724" lon="2.86298">
        <ele>823</ele>
        <time>2015-10-17T23:41:12Z</time>
      </trkpt>
      <trkpt lat="45.8723" lon="2.86286">
        <ele>822</ele>
        <time>2015-10-17T23:43:12Z</time>
      </trkpt>
      <trkpt lat="45.87221" lon="2.86267">
        <ele>822</ele>
        <time>2015-10-17T23:45:12Z</time>
      </trkpt>
      <trkpt lat="45.87211" lon="2.86246">
        <ele>821</ele>
        <time>2015-10-17T23:47:12Z</time>
      </trkpt>
      <trkpt lat="45.87207" lon="2.86222">
        <ele>820</ele>
        <time>2015-10-17T23:49:12Z</time>
      </trkpt>
      <trkpt lat="45.8722" lon="2.86173">
        <ele>819</ele>
        <time>2015-10-17T23:51:12Z</time>
      </trkpt>
      <trkpt lat="45.87222" lon="2.86115">
        <ele>817</ele>
        <time>2015-10-17T23:53:12Z</time>
      </trkpt>
      <trkpt lat="45.87219" lon="2.86088">
        <ele>816</ele>
        <time>2015-10-17T23:55:12Z</time>
      </trkpt>
      <trkpt lat="45.87215" lon="2.86026">
        <ele>812</ele>
        <time>2015-10-17T23:57:12Z</time>
      </trkpt>
      <trkpt lat="45.87218" lon="2.86007">
        <ele>811</ele>
        <time>2015-10-17T23:59:12Z</time>
      </trkpt>
      <trkpt lat="45.87223" lon="2.85987">
        <ele>811</ele>
        <time>2015-10-18T00:01:12Z</time>
      </trkpt>
      <trkpt lat="45.87233" lon="2.85953">
        <ele>810</ele>
        <time>2015-10-18T00:03:12Z</time>
      </trkpt>
      <trkpt lat="45.87245" lon="2.85903">
        <ele>809</ele>
        <time>2015-10-18T00:05:12Z</time>
      </trkpt>
      <trkpt lat="45.87261" lon="2.85901">
        <ele>809</ele>
        <time>2015-10-18T00:07:12Z</time>
      </trkpt>
      <trkpt lat="45.87285" lon="2.85899">
        <ele>808</ele>
        <time>2015-10-18T00:09:12Z</time>
      </trkpt>
      <trkpt lat="45.8731" lon="2.85898">
        <ele>807</ele>
        <time>2015-10-18T00:11:12Z</time>
      </trkpt>
      <trkpt lat="45.87348" lon="2.85892">
        <ele>805</ele>
        <time>2015-10-18T00:13:12Z</time>
      </trkpt>
      <trkpt lat="45.87393" lon="2.85869">
        <ele>801</ele>
        <time>2015-10-18T00:15:12Z</time>
      </trkpt>
      <trkpt lat="45.87447" lon="2.85832">
        <ele>798</ele>
        <time>2015-10-18T00:17:12Z</time>
      </trkpt>
      <trkpt lat="45.87474" lon="2.85812">
        <ele>795</ele>
        <time>2015-10-18T00:19:12Z</time>
      </trkpt>
      <trkpt lat="45.87497" lon="2.85795">
        <ele>793</ele>
        <time>2015-10-18T00:21:12Z</time>
      </trkpt>
      <trkpt lat="45.87525" lon="2.85777">
        <ele>791</ele>
        <time>2015-10-18T00:23:12Z</time>
      </trkpt>
      <trkpt lat="45.87547" lon="2.85769">
        <ele>789</ele>
        <time>2015-10-18T00:25:12Z</time>
      </trkpt>
      <trkpt lat="45.87567" lon="2.85762">
        <ele>788</ele>
        <time>2015-10-18T00:27:12Z</time>
      </trkpt>
      <trkpt lat="45.87591" lon="2.85742">
        <ele>786</ele>
        <time>2015-10-18T00:29:12Z</time>
      </trkpt>
      <trkpt lat="45.87597" lon="2.85671">
        <ele>786</ele>
        <time>2015-10-18T00:31:12Z</time>
      </trkpt>
      <trkpt lat="45.87597" lon="2.85658">
        <ele>786</ele>
        <time>2015-10-18T00:33:12Z</time>
      </trkpt>
      <trkpt lat="45.87599" lon="2.85633">
        <ele>786</ele>
        <time>2015-10-18T00:35:12Z</time>
      </trkpt>
      <trkpt lat="45.87602" lon="2.85599">
        <ele>786</ele>
        <time>2015-10-18T00:37:12Z</time>
      </trkpt>
      <trkpt lat="45.87607" lon="2.85525">
        <ele>785</ele>
        <time>2015-10-18T00:39:12Z</time>
      </trkpt>
      <trkpt lat="45.87611" lon="2.85503">
        <ele>784</ele>
        <time>2015-10-18T00:41:12Z</time>
      </trkpt>
      <trkpt lat="45.87621" lon="2.85433">
        <ele>784</ele>
        <time>2015-10-18T00:43:12Z</time>
      </trkpt>
      <trkpt lat="45.87631" lon="2.85406">
        <ele>784</ele>
        <time>2015-10-18T00:45:12Z</time>
      </trkpt>
      <trkpt lat="45.87657" lon="2.85348">
        <ele>783</ele>
        <time>2015-10-18T00:47:12Z</time>
      </trkpt>
      <trkpt lat="45.87668" lon="2.85321">
        <ele>783</ele>
        <time>2015-10-18T00:49:12Z</time>
      </trkpt>
      <trkpt lat="45.87676" lon="2.85305">
        <ele>783</ele>
        <time>2015-10-18T00:51:12Z</time>
      </trkpt>
      <trkpt lat="45.87684" lon="2.85281">
        <ele>783</ele>
        <time>2015-10-18T00:53:12Z</time>
      </trkpt>
      <trkpt lat="45.87691" lon="2.85262">
        <ele>784</ele>
        <time>2015-10-18T00:55:12Z</time>
      </trkpt>
      <trkpt lat="45.87697" lon="2.85238">
        <ele>783</ele>
        <time>2015-10-18T00:57:12Z</time>
      </trkpt>
      <trkpt lat="45.87702" lon="2.8521">
        <ele>782</ele>
        <time>2015-10-18T00:59:12Z</time>
      </trkpt>
      <trkpt lat="45.87712" lon="2.8516">
        <ele>781</ele>
        <time>2015-10-18T01:01:12Z</time>
      </trkpt>
      <trkpt lat="45.87713" lon="2.85123">
        <ele>778</ele>
        <time>2015-10-18T01:03:12Z</time>
      </trkpt>
      <trkpt lat="45.87715" lon="2.85069">
        <ele>775</ele>
        <time>2015-10-18T01:05:12Z</time>
      </trkpt>
      <trkpt lat="45.87713" lon="2.85039">
        <ele>773</ele>
        <time>2015-10-18T01:07:12Z</time>
      </trkpt>
      <trkpt lat="45.87706" lon="2.84975">
        <ele>770</ele>
        <time>2015-10-18T01:09:12Z</time>
      </trkpt>
      <trkpt lat="45.87701" lon="2.84949">
        <ele>769</ele>
        <time>2015-10-18T01:11:12Z</time>
      </trkpt>
      <trkpt lat="45.87702" lon="2.84929">
        <ele>769</ele>
        <time>2015-10-18T01:13:12Z</time>
      </trkpt>
      <trkpt lat="45.87715" lon="2.84903">
        <ele>771</ele>
        <time>2015-10-18T01:15:12Z</time>
      </trkpt>
      <trkpt lat="45.87729" lon="2.84881">
        <ele>771</ele>
        <time>2015-10-18T01:17:12Z</time>
      </trkpt>
      <trkpt lat="45.87745" lon="2.84869">
        <ele>772</ele>
        <time>2015-10-18T01:19:12Z</time>
      </trkpt>
      <trkpt lat="45.87758" lon="2.84859">
        <ele>771</ele>
        <time>2015-10-18T01:21:12Z</time>
      </trkpt>
      <trkpt lat="45.87752" lon="2.84829">
        <ele>770</ele>
        <time>2015-10-18T01:23:12Z</time>
      </trkpt>
      <trkpt lat="45.87743" lon="2.84774">
        <ele>768</ele>
        <time>2015-10-18T01:25:12Z</time>
      </trkpt>
      <trkpt lat="45.87725" lon="2.84708">
        <ele>765</ele>
        <time>2015-10-18T01:27:12Z</time>
      </trkpt>
      <trkpt lat="45.8773" lon="2.84704">
        <ele>765</ele>
        <time>2015-10-18T01:29:12Z</time>
      </trkpt>
      <trkpt lat="45.87737" lon="2.84707">
        <ele>765</ele>
        <time>2015-10-18T01:31:12Z</time>
      </trkpt>
      <trkpt lat="45.87746" lon="2.84712">
        <ele>765</ele>
        <time>2015-10-18T01:33:12Z</time>
      </trkpt>
      <trkpt lat="45.87753" lon="2.84722">
        <ele>765</ele>
        <time>2015-10-18T01:35:12Z</time>
      </trkpt>
      <trkpt lat="45.87766" lon="2.84754">
        <ele>764</ele>
        <time>2015-10-18T01:37:12Z</time>
      </trkpt>
      <trkpt lat="45.87777" lon="2.8478">
        <ele>764</ele>
        <time>2015-10-18T01:39:12Z</time>
      </trkpt>
      <trkpt lat="45.87784" lon="2.84793">
        <ele>764</ele>
        <time>2015-10-18T01:41:12Z</time>
      </trkpt>
      <trkpt lat="45.87792" lon="2.84805">
        <ele>764</ele>
        <time>2015-10-18T01:43:12Z</time>
      </trkpt>
      <trkpt lat="45.8781" lon="2.84821">
        <ele>764</ele>
        <time>2015-10-18T01:45:12Z</time>
      </trkpt>
      <trkpt lat="45.87819" lon="2.84828">
        <ele>764</ele>
        <time>2015-10-18T01:47:12Z</time>
      </trkpt>
      <trkpt lat="45.87829" lon="2.84829">
        <ele>763</ele>
        <time>2015-10-18T01:49:12Z</time>
      </trkpt>
      <trkpt lat="45.87837" lon="2.84829">
        <ele>762</ele>
        <time>2015-10-18T01:51:12Z</time>
      </trkpt>
      <trkpt lat="45.87847" lon="2.84828">
        <ele>761</ele>
        <time>2015-10-18T01:53:12Z</time>
      </trkpt>
      <trkpt lat="45.87856" lon="2.84827">
        <ele>760</ele>
        <time>2015-10-18T01:55:12Z</time>
      </trkpt>
      <trkpt lat="45.87869" lon="2.84829">
        <ele>759</ele>
        <time>2015-10-18T01:57:12Z</time>
      </trkpt>
      <trkpt lat="45.8788" lon="2.84839">
        <ele>759</ele>
        <time>2015-10-18T01:59:12Z</time>
      </trkpt>
      <trkpt lat="45.87895" lon="2.84846">
        <ele>758</ele>
        <time>2015-10-18T02:01:12Z</time>
      </trkpt>
      <trkpt lat="45.87912" lon="2.84865">
        <ele>759</ele>
        <time>2015-10-18T02:03:12Z</time>
      </trkpt>
      <trkpt lat="45.87923" lon="2.84874">
        <ele>758</ele>
        <time>2015-10-18T02:05:12Z</time>
      </trkpt>
      <trkpt lat="45.87958" lon="2.84898">
        <ele>755</ele>
        <time>2015-10-18T02:07:12Z</time>
      </trkpt>
      <trkpt lat="45.87971" lon="2.84908">
        <ele>754</ele>
        <time>2015-10-18T02:09:12Z</time>
      </trkpt>
      <trkpt lat="45.87983" lon="2.84918">
        <ele>753</ele>
        <time>2015-10-18T02:11:12Z</time>
      </trkpt>
      <trkpt lat="45.88001" lon="2.84945">
        <ele>752</ele>
        <time>2015-10-18T02:13:12Z</time>
      </trkpt>
      <trkpt lat="45.88012" lon="2.84977">
        <ele>753</ele>
        <time>2015-10-18T02:15:12Z</time>
      </trkpt>
      <trkpt lat="45.88014" lon="2.8499">
        <ele>753</ele>
        <time>2015-10-18T02:17:12Z</time>
      </trkpt>
      <trkpt lat="45.88016" lon="2.85008">
        <ele>754</ele>
        <time>2015-10-18T02:19:12Z</time>
      </trkpt>
      <trkpt lat="45.88014" lon="2.85026">
        <ele>756</ele>
        <time>2015-10-18T02:21:12Z</time>
      </trkpt>
      <trkpt lat="45.88008" lon="2.85041">
        <ele>758</ele>
        <time>2015-10-18T02:23:12Z</time>
      </trkpt>
      <trkpt lat="45.88006" lon="2.85065">
        <ele>760</ele>
        <time>2015-10-18T02:25:12Z</time>
      </trkpt>
      <trkpt lat="45.88008" lon="2.85078">
        <ele>761</ele>
        <time>2015-10-18T02:27:12Z</time>
      </trkpt>
      <trkpt lat="45.88011" lon="2.85095">
        <ele>761</ele>
        <time>2015-10-18T02:29:12Z</time>
      </trkpt>
      <trkpt lat="45.88016" lon="2.85113">
        <ele>762</ele>
        <time>2015-10-18T02:31:12Z</time>
      </trkpt>
      <trkpt lat="45.88024" lon="2.85121">
        <ele>760</ele>
        <time>2015-10-18T02:33:12Z</time>
      </trkpt>
      <trkpt lat="45.88034" lon="2.85126">
        <ele>759</ele>
        <time>2015-10-18T02:35:12Z</time>
      </trkpt>
      <trkpt lat="45.88048" lon="2.85129">
        <ele>756</ele>
        <time>2015-10-18T02:37:12Z</time>
      </trkpt>
      <trkpt lat="45.88063" lon="2.85134">
        <ele>754</ele>
        <time>2015-10-18T02:39:12Z</time>
      </trkpt>
      <trkpt lat="45.88088" lon="2.85141">
        <ele>750</ele>
        <time>2015-10-18T02:41:12Z</time>
      </trkpt>
      <trkpt lat="45.88104" lon="2.85145">
        <ele>749</ele>
        <time>2015-10-18T02:43:12Z</time>
      </trkpt>
      <trkpt lat="45.88119" lon="2.85151">
        <ele>748</ele>
        <time>2015-10-18T02:45:12Z</time>
      </trkpt>
      <trkpt lat="45.88133" lon="2.85154">
        <ele>747</ele>
        <time>2015-10-18T02:47:12Z</time>
      </trkpt>
      <trkpt lat="45.88166" lon="2.85178">
        <ele>747</ele>
        <time>2015-10-18T02:49:12Z</time>
      </trkpt>
      <trkpt lat="45.88197" lon="2.85196">
        <ele>745</ele>
        <time>2015-10-18T02:51:12Z</time>
      </trkpt>
      <trkpt lat="45.88208" lon="2.85205">
        <ele>745</ele>
        <time>2015-10-18T02:53:12Z</time>
      </trkpt>
      <trkpt lat="45.88223" lon="2.85225">
        <ele>746</ele>
        <time>2015-10-18T02:55:12Z</time>
      </trkpt>
      <trkpt lat="45.88252" lon="2.85251">
        <ele>748</ele>
        <time>2015-10-18T02:57:12Z</time>
      </trkpt>
      <trkpt lat="45.88279" lon="2.8527">
        <ele>744</ele>
        <time>2015-10-18T02:59:12Z</time>
      </trkpt>
      <trkpt lat="45.88288" lon="2.85282">
        <ele>744</ele>
        <time>2015-10-18T03:01:12Z</time>
      </trkpt>
      <trkpt lat="45.88302" lon="2.85299">
        <ele>744</ele>
        <time>2015-10-18T03:03:12Z</time>
      </trkpt>
      <trkpt lat="45.88331" lon="2.8532">
        <ele>742</ele>
        <time>2015-10-18T03:05:12Z</time>
      </trkpt>
      <trkpt lat="45.88345" lon="2.85339">
        <ele>740</ele>
        <time>2015-10-18T03:07:12Z</time>
      </trkpt>
      <trkpt lat="45.88361" lon="2.85352">
        <ele>735</ele>
        <time>2015-10-18T03:09:12Z</time>
      </trkpt>
      <trkpt lat="45.88378" lon="2.85369">
        <ele>731</ele>
        <time>2015-10-18T03:11:12Z</time>
      </trkpt>
      <trkpt lat="45.88391" lon="2.85384">
        <ele>728</ele>
        <time>2015-10-18T03:13:12Z</time>
      </trkpt>
      <trkpt lat="45.88396" lon="2.8539">
        <ele>727</ele>
        <time>2015-10-18T03:15:12Z</time>
      </trkpt>
      <trkpt lat="45.88391" lon="2.85402">
        <ele>727</ele>
        <time>2015-10-18T03:17:12Z</time>
      </trkpt>
      <trkpt lat="45.88362" lon="2.85408">
        <ele>731</ele>
        <time>2015-10-18T03:19:12Z</time>
      </trkpt>
      <trkpt lat="45.88318" lon="2.85414">
        <ele>735</ele>
        <time>2015-10-18T03:21:12Z</time>
      </trkpt>
      <trkpt lat="45.88294" lon="2.85421">
        <ele>737</ele>
        <time>2015-10-18T03:23:12Z</time>
      </trkpt>
      <trkpt lat="45.88278" lon="2.85433">
        <ele>737</ele>
        <time>2015-10-18T03:25:12Z</time>
      </trkpt>
      <trkpt lat="45.88268" lon="2.85444">
        <ele>736</ele>
        <time>2015-10-18T03:27:12Z</time>
      </trkpt>
      <trkpt lat="45.88258" lon="2.85465">
        <ele>733</ele>
        <time>2015-10-18T03:29:12Z</time>
      </trkpt>
      <trkpt lat="45.88248" lon="2.85473">
        <ele>733</ele>
        <time>2015-10-18T03:31:12Z</time>
      </trkpt>
      <trkpt lat="45.88232" lon="2.85487">
        <ele>733</ele>
        <time>2015-10-18T03:33:12Z</time>
      </trkpt>
      <trkpt lat="45.88213" lon="2.8552">
        <ele>734</ele>
        <time>2015-10-18T03:35:12Z</time>
      </trkpt>
      <trkpt lat="45.88219" lon="2.85535">
        <ele>733</ele>
        <time>2015-10-18T03:37:12Z</time>
      </trkpt>
      <trkpt lat="45.88228" lon="2.85538">
        <ele>733</ele>
        <time>2015-10-18T03:39:12Z</time>
      </trkpt>
      <trkpt lat="45.88252" lon="2.85538">
        <ele>731</ele>
        <time>2015-10-18T03:41:12Z</time>
      </trkpt>
      <trkpt lat="45.8827" lon="2.8554">
        <ele>732</ele>
        <time>2015-10-18T03:43:12Z</time>
      </trkpt>
      <trkpt lat="45.88281" lon="2.8554">
        <ele>732</ele>
        <time>2015-10-18T03:45:12Z</time>
      </trkpt>
      <trkpt lat="45.883" lon="2.85552">
        <ele>734</ele>
        <time>2015-10-18T03:47:12Z</time>
      </trkpt>
      <trkpt lat="45.8834" lon="2.85571">
        <ele>740</ele>
        <time>2015-10-18T03:49:12Z</time>
      </trkpt>
      <trkpt lat="45.88354" lon="2.85585">
        <ele>743</ele>
        <time>2015-10-18T03:51:12Z</time>
      </trkpt>
      <trkpt lat="45.8837" lon="2.85599">
        <ele>745</ele>
        <time>2015-10-18T03:53:12Z</time>
      </trkpt>
      <trkpt lat="45.88391" lon="2.85617">
        <ele>748</ele>
        <time>2015-10-18T03:55:12Z</time>
      </trkpt>
      <trkpt lat="45.88416" lon="2.85637">
        <ele>751</ele>
        <time>2015-10-18T03:57:12Z</time>
      </trkpt>
      <trkpt lat="45.88426" lon="2.8564">
        <ele>751</ele>
        <time>2015-10-18T03:59:12Z</time>
      </trkpt>
      <trkpt lat="45.88447" lon="2.85645">
        <ele>752</ele>
        <time>2015-10-18T04:01:12Z</time>
      </trkpt>
      <trkpt lat="45.88465" lon="2.85651">
        <ele>752</ele>
        <time>2015-10-18T04:03:12Z</time>
      </trkpt>
      <trkpt lat="45.88482" lon="2.85655">
        <ele>752</ele>
        <time>2015-10-18T04:05:12Z</time>
      </trkpt>
      <trkpt lat="45.88488" lon="2.85655">
        <ele>751</ele>
        <time>2015-10-18T04:07:12Z</time>
      </trkpt>
      <trkpt lat="45.88498" lon="2.85656">
        <ele>751</ele>
        <time>2015-10-18T04:09:12Z</time>
      </trkpt>
      <trkpt lat="45.88514" lon="2.85642">
        <ele>750</ele>
        <time>2015-10-18T04:11:12Z</time>
      </trkpt>
      <trkpt lat="45.88526" lon="2.85637">
        <ele>750</ele>
        <time>2015-10-18T04:13:12Z</time>
      </trkpt>
      <trkpt lat="45.88538" lon="2.85626">
        <ele>749</ele>
        <time>2015-10-18T04:15:12Z</time>
      </trkpt>
      <trkpt lat="45.88552" lon="2.85624">
        <ele>749</ele>
        <time>2015-10-18T04:17:12Z</time>
      </trkpt>
      <trkpt lat="45.8857" lon="2.85625">
        <ele>750</ele>
        <time>2015-10-18T04:19:12Z</time>
      </trkpt>
      <trkpt lat="45.8859" lon="2.85626">
        <ele>751</ele>
        <time>2015-10-18T04:21:12Z</time>
      </trkpt>
      <trkpt lat="45.88606" lon="2.85629">
        <ele>751</ele>
        <time>2015-10-18T04:23:12Z</time>
      </trkpt>
      <trkpt lat="45.88619" lon="2.85635">
        <ele>751</ele>
        <time>2015-10-18T04:25:12Z</time>
      </trkpt>
      <trkpt lat="45.88635" lon="2.85639">
        <ele>751</ele>
        <time>2015-10-18T04:27:12Z</time>
      </trkpt>
      <trkpt lat="45.88652" lon="2.85646">
        <ele>752</ele>
        <time>2015-10-18T04:29:12Z</time>
      </trkpt>
      <trkpt lat="45.88676" lon="2.85655">
        <ele>752</ele>
        <time>2015-10-18T04:31:12Z</time>
      </trkpt>
      <trkpt lat="45.887" lon="2.85663">
        <ele>752</ele>
        <time>2015-10-18T04:33:12Z</time>
      </trkpt>
      <trkpt lat="45.88735" lon="2.85672">
        <ele>750</ele>
        <time>2015-10-18T04:35:12Z</time>
      </trkpt>
      <trkpt lat="45.88765" lon="2.85694">
        <ele>753</ele>
        <time>2015-10-18T04:37:12Z</time>
      </trkpt>
      <trkpt lat="45.88795" lon="2.85719">
        <ele>756</ele>
        <time>2015-10-18T04:39:12Z</time>
      </trkpt>
      <trkpt lat="45.88824" lon="2.85732">
        <ele>755</ele>
        <time>2015-10-18T04:41:12Z</time>
      </trkpt>
      <trkpt lat="45.88848" lon="2.85743">
        <ele>756</ele>
        <time>2015-10-18T04:43:12Z</time>
      </trkpt>
      <trkpt lat="45.88868" lon="2.85748">
        <ele>758</ele>
        <time>2015-10-18T04:45:12Z</time>
      </trkpt>
      <trkpt lat="45.88889" lon="2.85762">
        <ele>760</ele>
        <time>2015-10-18T04:47:12Z</time>
      </trkpt>
      <trkpt lat="45.88918" lon="2.85774">
        <ele>762</ele>
        <time>2015-10-18T04:49:12Z</time>
      </trkpt>
      <trkpt lat="45.88932" lon="2.85784">
        <ele>764</ele>
        <time>2015-10-18T04:51:12Z</time>
      </trkpt>
      <trkpt lat="45.88949" lon="2.85792">
        <ele>765</ele>
        <time>2015-10-18T04:53:12Z</time>
      </trkpt>
      <trkpt lat="45.88993" lon="2.85812">
        <ele>767</ele>
        <time>2015-10-18T04:55:12Z</time>
      </trkpt>
      <trkpt lat="45.89013" lon="2.85844">
        <ele>769</ele>
        <time>2015-10-18T04:57:12Z</time>
      </trkpt>
      <trkpt lat="45.89022" lon="2.85872">
        <ele>771</ele>
        <time>2015-10-18T04:59:12Z</time>
      </trkpt>
      <trkpt lat="45.89036" lon="2.85938">
        <ele>774</ele>
        <time>2015-10-18T05:01:12Z</time>
      </trkpt>
      <trkpt lat="45.89045" lon="2.85966">
        <ele>775</ele>
        <time>2015-10-18T05:03:12Z</time>
      </trkpt>
      <trkpt lat="45.8905" lon="2.85999">
        <ele>776</ele>
        <time>2015-10-18T05:05:12Z</time>
      </trkpt>
      <trkpt lat="45.8907" lon="2.86047">
        <ele>779</ele>
        <time>2015-10-18T05:07:12Z</time>
      </trkpt>
      <trkpt lat="45.89092" lon="2.86091">
        <ele>781</ele>
        <time>2015-10-18T05:09:12Z</time>
      </trkpt>
      <trkpt lat="45.89118" lon="2.86101">
        <ele>780</ele>
        <time>2015-10-18T05:11:12Z</time>
      </trkpt>
      <trkpt lat="45.89135" lon="2.86107">
        <ele>779</ele>
        <time>2015-10-18T05:13:12Z</time>
      </trkpt>
      <trkpt lat="45.89151" lon="2.86129">
        <ele>780</ele>
        <time>2015-10-18T05:15:12Z</time>
      </trkpt>
      <trkpt lat="45.8916" lon="2.86146">
        <ele>781</ele>
        <time>2015-10-18T05:17:12Z</time>
      </trkpt>
      <trkpt lat="45.89176" lon="2.86165">
        <ele>782</ele>
        <time>2015-10-18T05:19:12Z</time>
      </trkpt>
      <trkpt lat="45.89186" lon="2.8618">
        <ele>782</ele>
        <time>2015-10-18T05:21:12Z</time>
      </trkpt>
      <trkpt lat="45.8919" lon="2.86201">
        <ele>783</ele>
        <time>2015-10-18T05:23:12Z</time>
      </trkpt>
      <trkpt lat="45.89206" lon="2.86193">
        <ele>782</ele>
        <time>2015-10-18T05:25:12Z</time>
      </trkpt>
      <trkpt lat="45.89247" lon="2.86174">
        <ele>780</ele>
        <time>2015-10-18T05:27:12Z</time>
      </trkpt>
      <trkpt lat="45.89264" lon="2.86182">
        <ele>779</ele>
        <time>2015-10-18T05:29:12Z</time>
      </trkpt>
    </trkseg>
  </trk>
</gpx>